sensor_id;sensor_type;location;lat;lon;timestamp;pressure;altitude;pressure_sealevel;temperature;humidity
63339;BME280;47485;51.378;-1.342;2023-05-19T00:01:50;101282.66;;;15.59;22.40
63339;BME280;47485;51.378;-1.342;2023-05-19T00:04:18;101281.92;;;16.03;22.32
63339;BME280;47485;51.378;-1.342;2023-05-19T00:06:49;101280.61;;;15.68;22.29
63339;BME280;47485;51.378;-1.342;2023-05-19T00:09:17;101280.92;;;17.41;21.93
63339;BME280;47485;51.378;-1.342;2023-05-19T00:11:45;101281.58;;;16.43;22.09
63339;BME280;47485;51.378;-1.342;2023-05-19T00:14:12;101280.22;;;16.64;22.31
63339;BME280;47485;51.378;-1.342;2023-05-19T00:16:39;101276.28;;;14.98;22.55
63339;BME280;47485;51.378;-1.342;2023-05-19T00:19:06;101276.98;;;16.84;21.07
63339;BME280;47485;51.378;-1.342;2023-05-19T00:21:33;101276.95;;;16.77;22.08
63339;BME280;47485;51.378;-1.342;2023-05-19T00:24:00;101271.00;;;18.96;20.12
63339;BME280;47485;51.378;-1.342;2023-05-19T00:26:26;101271.91;;;19.06;20.47
63339;BME280;47485;51.378;-1.342;2023-05-19T00:28:53;101273.45;;;19.02;21.23
63339;BME280;47485;51.378;-1.342;2023-05-19T00:31:20;101271.63;;;18.91;21.50
63339;BME280;47485;51.378;-1.342;2023-05-19T00:33:47;101269.97;;;14.70;23.70
63339;BME280;47485;51.378;-1.342;2023-05-19T00:36:14;101267.40;;;14.42;23.68
63339;BME280;47485;51.378;-1.342;2023-05-19T00:38:41;101267.82;;;15.55;23.26
63339;BME280;47485;51.378;-1.342;2023-05-19T00:41:08;101269.43;;;17.45;21.92
63339;BME280;47485;51.378;-1.342;2023-05-19T00:43:35;101272.60;;;20.25;20.51
63339;BME280;47485;51.378;-1.342;2023-05-19T00:46:02;101275.04;;;16.93;22.16
63339;BME280;47485;51.378;-1.342;2023-05-19T00:48:30;101281.14;;;15.50;23.65
63339;BME280;47485;51.378;-1.342;2023-05-19T00:50:57;101282.47;;;14.41;24.23
63339;BME280;47485;51.378;-1.342;2023-05-19T00:53:25;101286.25;;;15.36;23.96
63339;BME280;47485;51.378;-1.342;2023-05-19T00:55:51;101286.31;;;15.79;24.96
63339;BME280;47485;51.378;-1.342;2023-05-19T00:58:19;101289.31;;;15.01;24.86
63339;BME280;47485;51.378;-1.342;2023-05-19T01:00:45;101289.88;;;14.97;24.31
63339;BME280;47485;51.378;-1.342;2023-05-19T01:03:12;101288.53;;;14.89;24.11
63339;BME280;47485;51.378;-1.342;2023-05-19T01:05:39;101286.91;;;16.26;23.93
63339;BME280;47485;51.378;-1.342;2023-05-19T01:08:06;101283.42;;;16.21;24.01
63339;BME280;47485;51.378;-1.342;2023-05-19T01:10:34;101281.67;;;15.77;24.37
63339;BME280;47485;51.378;-1.342;2023-05-19T01:13:01;101283.73;;;15.15;24.44
63339;BME280;47485;51.378;-1.342;2023-05-19T01:15:28;101284.87;;;15.86;24.30
63339;BME280;47485;51.378;-1.342;2023-05-19T01:18:02;101285.91;;;15.58;23.98
63339;BME280;47485;51.378;-1.342;2023-05-19T01:20:35;101286.40;;;15.11;24.32
63339;BME280;47485;51.378;-1.342;2023-05-19T01:23:17;101287.64;;;15.18;24.82
63339;BME280;47485;51.378;-1.342;2023-05-19T01:26:15;101285.83;;;15.71;24.08
63339;BME280;47485;51.378;-1.342;2023-05-19T01:29:07;101284.94;;;15.57;23.79
63339;BME280;47485;51.378;-1.342;2023-05-19T01:31:41;101273.78;;;17.24;23.36
63339;BME280;47485;51.378;-1.342;2023-05-19T01:34:10;101270.40;;;15.41;24.57
63339;BME280;47485;51.378;-1.342;2023-05-19T01:36:40;101266.10;;;14.54;24.57
63339;BME280;47485;51.378;-1.342;2023-05-19T01:39:07;101264.76;;;15.27;24.32
63339;BME280;47485;51.378;-1.342;2023-05-19T01:41:34;101264.16;;;15.71;24.05
63339;BME280;47485;51.378;-1.342;2023-05-19T01:44:02;101256.26;;;16.41;23.47
63339;BME280;47485;51.378;-1.342;2023-05-19T01:46:29;101258.14;;;16.68;24.39
63339;BME280;47485;51.378;-1.342;2023-05-19T01:48:56;101260.73;;;15.67;24.34
63339;BME280;47485;51.378;-1.342;2023-05-19T01:51:23;101263.25;;;15.26;24.16
63339;BME280;47485;51.378;-1.342;2023-05-19T01:53:50;101267.17;;;14.94;24.37
63339;BME280;47485;51.378;-1.342;2023-05-19T01:56:28;101270.43;;;16.55;23.67
63339;BME280;47485;51.378;-1.342;2023-05-19T01:59:05;101274.62;;;18.21;22.38
63339;BME280;47485;51.378;-1.342;2023-05-19T02:01:43;101275.03;;;15.96;23.54
63339;BME280;47485;51.378;-1.342;2023-05-19T02:04:19;101273.33;;;13.52;25.58
63339;BME280;47485;51.378;-1.342;2023-05-19T02:06:56;101270.65;;;14.76;24.96
63339;BME280;47485;51.378;-1.342;2023-05-19T02:09:33;101269.30;;;14.83;25.27
63339;BME280;47485;51.378;-1.342;2023-05-19T02:12:09;101269.08;;;15.47;24.84
63339;BME280;47485;51.378;-1.342;2023-05-19T02:14:39;101270.14;;;15.38;24.02
63339;BME280;47485;51.378;-1.342;2023-05-19T02:17:08;101272.63;;;18.41;22.94
63339;BME280;47485;51.378;-1.342;2023-05-19T02:19:37;101276.30;;;15.76;24.02
63339;BME280;47485;51.378;-1.342;2023-05-19T02:22:04;101272.27;;;15.07;25.06
63339;BME280;47485;51.378;-1.342;2023-05-19T02:24:32;101266.72;;;14.67;24.72
63339;BME280;47485;51.378;-1.342;2023-05-19T02:26:59;101266.17;;;13.73;25.67
63339;BME280;47485;51.378;-1.342;2023-05-19T02:29:26;101261.67;;;15.35;24.98
63339;BME280;47485;51.378;-1.342;2023-05-19T02:31:52;101257.65;;;16.44;24.16
63339;BME280;47485;51.378;-1.342;2023-05-19T02:34:19;101253.06;;;14.93;24.46
63339;BME280;47485;51.378;-1.342;2023-05-19T02:36:46;101253.71;;;15.60;24.39
63339;BME280;47485;51.378;-1.342;2023-05-19T02:39:12;101255.53;;;14.33;24.56
63339;BME280;47485;51.378;-1.342;2023-05-19T02:41:39;101254.42;;;15.22;24.27
63339;BME280;47485;51.378;-1.342;2023-05-19T02:44:06;101253.24;;;15.54;24.66
63339;BME280;47485;51.378;-1.342;2023-05-19T02:46:33;101256.90;;;15.27;24.73
63339;BME280;47485;51.378;-1.342;2023-05-19T02:49:00;101261.60;;;14.58;24.85
63339;BME280;47485;51.378;-1.342;2023-05-19T02:51:27;101264.50;;;15.38;24.33
63339;BME280;47485;51.378;-1.342;2023-05-19T02:53:53;101266.15;;;16.35;23.64
63339;BME280;47485;51.378;-1.342;2023-05-19T02:56:20;101265.75;;;16.71;23.64
63339;BME280;47485;51.378;-1.342;2023-05-19T02:58:47;101270.86;;;16.20;23.91
63339;BME280;47485;51.378;-1.342;2023-05-19T03:01:14;101272.45;;;14.79;24.66
63339;BME280;47485;51.378;-1.342;2023-05-19T03:03:40;101271.42;;;14.25;24.71
63339;BME280;47485;51.378;-1.342;2023-05-19T03:06:07;101271.56;;;13.81;24.98
63339;BME280;47485;51.378;-1.342;2023-05-19T03:08:34;101277.57;;;14.07;24.79
63339;BME280;47485;51.378;-1.342;2023-05-19T03:11:01;101277.45;;;15.39;24.77
63339;BME280;47485;51.378;-1.342;2023-05-19T03:13:27;101271.71;;;14.45;24.41
63339;BME280;47485;51.378;-1.342;2023-05-19T03:15:54;101269.05;;;15.86;24.13
63339;BME280;47485;51.378;-1.342;2023-05-19T03:18:21;101269.39;;;16.34;23.84
63339;BME280;47485;51.378;-1.342;2023-05-19T03:20:47;101266.51;;;17.16;22.96
63339;BME280;47485;51.378;-1.342;2023-05-19T03:23:15;101263.69;;;17.03;23.28
63339;BME280;47485;51.378;-1.342;2023-05-19T03:25:41;101266.69;;;14.96;25.08
63339;BME280;47485;51.378;-1.342;2023-05-19T03:28:08;101265.68;;;16.81;24.13
63339;BME280;47485;51.378;-1.342;2023-05-19T03:30:35;101265.29;;;19.02;23.35
63339;BME280;47485;51.378;-1.342;2023-05-19T03:33:01;101266.25;;;18.39;24.07
63339;BME280;47485;51.378;-1.342;2023-05-19T03:35:28;101267.76;;;12.15;28.01
63339;BME280;47485;51.378;-1.342;2023-05-19T03:37:54;101266.13;;;10.66;27.38
63339;BME280;47485;51.378;-1.342;2023-05-19T03:40:21;101260.05;;;15.76;25.16
63339;BME280;47485;51.378;-1.342;2023-05-19T03:42:48;101261.90;;;13.49;26.24
63339;BME280;47485;51.378;-1.342;2023-05-19T03:45:15;101260.51;;;14.43;25.78
63339;BME280;47485;51.378;-1.342;2023-05-19T03:47:42;101264.01;;;13.86;26.04
63339;BME280;47485;51.378;-1.342;2023-05-19T03:50:09;101265.11;;;13.76;26.17
63339;BME280;47485;51.378;-1.342;2023-05-19T03:52:36;101263.99;;;13.69;25.56
63339;BME280;47485;51.378;-1.342;2023-05-19T03:55:04;101262.86;;;13.01;25.98
63339;BME280;47485;51.378;-1.342;2023-05-19T03:57:31;101257.23;;;15.15;24.67
63339;BME280;47485;51.378;-1.342;2023-05-19T03:59:59;101257.08;;;14.29;25.93
63339;BME280;47485;51.378;-1.342;2023-05-19T04:02:25;101257.01;;;14.11;25.86
63339;BME280;47485;51.378;-1.342;2023-05-19T04:04:52;101253.71;;;12.44;26.64
63339;BME280;47485;51.378;-1.342;2023-05-19T04:07:18;101250.22;;;14.34;26.02
63339;BME280;47485;51.378;-1.342;2023-05-19T04:09:45;101246.04;;;14.13;25.43
63339;BME280;47485;51.378;-1.342;2023-05-19T04:12:12;101248.96;;;12.51;26.56
63339;BME280;47485;51.378;-1.342;2023-05-19T04:14:38;101250.42;;;12.59;26.19
63339;BME280;47485;51.378;-1.342;2023-05-19T04:17:05;101249.48;;;14.95;25.54
63339;BME280;47485;51.378;-1.342;2023-05-19T04:19:32;101254.03;;;14.05;25.72
63339;BME280;47485;51.378;-1.342;2023-05-19T04:21:58;101258.58;;;13.35;26.06
63339;BME280;47485;51.378;-1.342;2023-05-19T04:24:25;101259.48;;;14.20;25.53
63339;BME280;47485;51.378;-1.342;2023-05-19T04:26:52;101257.20;;;13.92;25.76
63339;BME280;47485;51.378;-1.342;2023-05-19T04:29:19;101257.46;;;12.65;25.59
63339;BME280;47485;51.378;-1.342;2023-05-19T04:31:46;101259.44;;;14.58;24.21
63339;BME280;47485;51.378;-1.342;2023-05-19T04:34:12;101263.55;;;12.51;26.45
63339;BME280;47485;51.378;-1.342;2023-05-19T04:36:40;101262.21;;;13.12;26.06
63339;BME280;47485;51.378;-1.342;2023-05-19T04:39:07;101260.00;;;12.67;25.40
63339;BME280;47485;51.378;-1.342;2023-05-19T04:41:35;101266.78;;;15.86;23.89
63339;BME280;47485;51.378;-1.342;2023-05-19T04:44:02;101274.62;;;15.91;23.82
63339;BME280;47485;51.378;-1.342;2023-05-19T04:46:29;101276.10;;;16.35;24.19
63339;BME280;47485;51.378;-1.342;2023-05-19T04:48:56;101272.38;;;15.52;25.22
63339;BME280;47485;51.378;-1.342;2023-05-19T04:51:22;101277.71;;;13.00;26.80
63339;BME280;47485;51.378;-1.342;2023-05-19T04:53:49;101282.31;;;12.91;27.06
63339;BME280;47485;51.378;-1.342;2023-05-19T04:56:17;101283.52;;;12.45;27.51
63339;BME280;47485;51.378;-1.342;2023-05-19T04:58:44;101277.39;;;10.91;27.32
63339;BME280;47485;51.378;-1.342;2023-05-19T05:01:11;101269.96;;;13.83;26.49
63339;BME280;47485;51.378;-1.342;2023-05-19T05:03:38;101267.08;;;13.41;26.51
63339;BME280;47485;51.378;-1.342;2023-05-19T05:06:05;101267.86;;;10.72;27.97
63339;BME280;47485;51.378;-1.342;2023-05-19T05:08:32;101265.67;;;15.00;25.37
63339;BME280;47485;51.378;-1.342;2023-05-19T05:10:59;101269.25;;;15.79;25.12
63339;BME280;47485;51.378;-1.342;2023-05-19T05:13:27;101272.75;;;14.48;26.41
63339;BME280;47485;51.378;-1.342;2023-05-19T05:15:54;101268.65;;;12.08;26.59
63339;BME280;47485;51.378;-1.342;2023-05-19T05:18:22;101268.66;;;11.86;28.42
63339;BME280;47485;51.378;-1.342;2023-05-19T05:20:49;101261.38;;;13.58;26.58
63339;BME280;47485;51.378;-1.342;2023-05-19T05:23:17;101261.13;;;14.06;25.80
63339;BME280;47485;51.378;-1.342;2023-05-19T05:25:45;101264.69;;;11.76;27.00
63339;BME280;47485;51.378;-1.342;2023-05-19T05:28:12;101257.64;;;13.03;26.64
63339;BME280;47485;51.378;-1.342;2023-05-19T05:30:39;101252.64;;;14.03;26.30
63339;BME280;47485;51.378;-1.342;2023-05-19T05:33:06;101247.05;;;14.12;26.22
63339;BME280;47485;51.378;-1.342;2023-05-19T05:35:33;101246.55;;;12.46;26.95
63339;BME280;47485;51.378;-1.342;2023-05-19T05:38:01;101237.65;;;12.58;26.59
63339;BME280;47485;51.378;-1.342;2023-05-19T05:40:28;101234.16;;;13.47;26.07
63339;BME280;47485;51.378;-1.342;2023-05-19T05:42:55;101232.53;;;12.71;26.66
63339;BME280;47485;51.378;-1.342;2023-05-19T05:45:21;101233.22;;;12.36;26.44
63339;BME280;47485;51.378;-1.342;2023-05-19T05:47:49;101231.50;;;11.83;26.89
63339;BME280;47485;51.378;-1.342;2023-05-19T05:50:17;101233.16;;;12.11;26.99
63339;BME280;47485;51.378;-1.342;2023-05-19T05:52:45;101233.10;;;14.29;26.20
63339;BME280;47485;51.378;-1.342;2023-05-19T05:55:14;101244.96;;;16.38;24.41
63339;BME280;47485;51.378;-1.342;2023-05-19T05:57:41;101261.10;;;15.88;28.22
63339;BME280;47485;51.378;-1.342;2023-05-19T06:00:08;101258.61;;;13.76;28.99
63339;BME280;47485;51.378;-1.342;2023-05-19T06:02:35;101251.53;;;10.56;30.39
63339;BME280;47485;51.378;-1.342;2023-05-19T06:05:02;101251.83;;;12.93;29.02
63339;BME280;47485;51.378;-1.342;2023-05-19T06:07:29;101257.32;;;13.20;28.58
63339;BME280;47485;51.378;-1.342;2023-05-19T06:09:56;101270.31;;;12.83;31.57
63339;BME280;47485;51.378;-1.342;2023-05-19T06:12:23;101280.89;;;12.14;34.38
63339;BME280;47485;51.378;-1.342;2023-05-19T06:14:50;101284.83;;;10.08;36.25
63339;BME280;47485;51.378;-1.342;2023-05-19T06:17:16;101271.43;;;12.96;33.39
63339;BME280;47485;51.378;-1.342;2023-05-19T06:19:43;101269.48;;;12.39;32.90
63339;BME280;47485;51.378;-1.342;2023-05-19T06:22:10;101269.81;;;13.31;33.08
63339;BME280;47485;51.378;-1.342;2023-05-19T06:24:37;101265.58;;;11.88;34.13
63339;BME280;47485;51.378;-1.342;2023-05-19T06:27:03;101269.58;;;9.87;34.06
63339;BME280;47485;51.378;-1.342;2023-05-19T06:29:31;101276.44;;;12.30;31.10
63339;BME280;47485;51.378;-1.342;2023-05-19T06:31:58;101276.09;;;14.21;29.19
63339;BME280;47485;51.378;-1.342;2023-05-19T06:34:25;101276.96;;;12.44;30.50
63339;BME280;47485;51.378;-1.342;2023-05-19T06:36:52;101279.13;;;11.22;32.89
63339;BME280;47485;51.378;-1.342;2023-05-19T06:39:19;101284.43;;;11.24;31.47
63339;BME280;47485;51.378;-1.342;2023-05-19T06:41:46;101290.96;;;14.56;28.58
63339;BME280;47485;51.378;-1.342;2023-05-19T06:44:13;101296.69;;;14.68;29.54
63339;BME280;47485;51.378;-1.342;2023-05-19T06:46:39;101292.47;;;13.35;31.78
63339;BME280;47485;51.378;-1.342;2023-05-19T06:49:06;101281.87;;;12.89;29.73
63339;BME280;47485;51.378;-1.342;2023-05-19T06:51:32;101292.80;;;7.03;34.24
63339;BME280;47485;51.378;-1.342;2023-05-19T06:53:59;101292.95;;;11.89;31.35
63339;BME280;47485;51.378;-1.342;2023-05-19T06:56:26;101294.71;;;10.45;33.18
63339;BME280;47485;51.378;-1.342;2023-05-19T06:58:52;101286.27;;;12.79;30.73
63339;BME280;47485;51.378;-1.342;2023-05-19T07:01:19;101288.93;;;14.81;29.90
63339;BME280;47485;51.378;-1.342;2023-05-19T07:03:46;101283.58;;;12.39;32.11
63339;BME280;47485;51.378;-1.342;2023-05-19T07:06:13;101277.41;;;13.28;30.52
63339;BME280;47485;51.378;-1.342;2023-05-19T07:08:39;101274.62;;;11.26;31.87
63339;BME280;47485;51.378;-1.342;2023-05-19T07:11:06;101277.99;;;14.68;29.03
63339;BME280;47485;51.378;-1.342;2023-05-19T07:13:33;101284.25;;;9.85;34.11
63339;BME280;47485;51.378;-1.342;2023-05-19T07:16:00;101280.48;;;9.01;34.05
63339;BME280;47485;51.378;-1.342;2023-05-19T07:18:27;101277.34;;;10.98;30.85
63339;BME280;47485;51.378;-1.342;2023-05-19T07:20:54;101278.78;;;14.37;29.17
63339;BME280;47485;51.378;-1.342;2023-05-19T07:23:21;101280.21;;;12.10;30.65
63339;BME280;47485;51.378;-1.342;2023-05-19T07:25:49;101280.63;;;9.27;32.79
63339;BME280;47485;51.378;-1.342;2023-05-19T07:28:19;101278.93;;;14.10;28.98
63339;BME280;47485;51.378;-1.342;2023-05-19T07:30:46;101278.18;;;16.27;27.30
63339;BME280;47485;51.378;-1.342;2023-05-19T07:33:12;101290.44;;;10.98;32.40
63339;BME280;47485;51.378;-1.342;2023-05-19T07:35:39;101288.88;;;14.39;28.83
63339;BME280;47485;51.378;-1.342;2023-05-19T07:38:05;101291.29;;;16.08;29.03
63339;BME280;47485;51.378;-1.342;2023-05-19T07:40:32;101296.21;;;11.27;33.37
63339;BME280;47485;51.378;-1.342;2023-05-19T07:42:59;101302.07;;;8.31;35.32
63339;BME280;47485;51.378;-1.342;2023-05-19T07:45:27;101300.17;;;12.34;31.42
63339;BME280;47485;51.378;-1.342;2023-05-19T07:47:54;101304.87;;;15.53;29.07
63339;BME280;47485;51.378;-1.342;2023-05-19T07:50:21;101311.37;;;14.59;30.61
63339;BME280;47485;51.378;-1.342;2023-05-19T07:52:48;101315.15;;;14.05;31.35
63339;BME280;47485;51.378;-1.342;2023-05-19T07:55:15;101314.57;;;13.11;32.74
63339;BME280;47485;51.378;-1.342;2023-05-19T07:57:42;101313.39;;;12.88;32.58
63339;BME280;47485;51.378;-1.342;2023-05-19T08:00:09;101317.05;;;13.01;32.10
63339;BME280;47485;51.378;-1.342;2023-05-19T08:02:36;101315.77;;;14.65;32.65
63339;BME280;47485;51.378;-1.342;2023-05-19T08:05:04;101313.73;;;12.86;32.79
63339;BME280;47485;51.378;-1.342;2023-05-19T08:07:31;101313.25;;;12.91;32.70
63339;BME280;47485;51.378;-1.342;2023-05-19T08:09:58;101316.39;;;14.92;31.17
63339;BME280;47485;51.378;-1.342;2023-05-19T08:12:25;101323.06;;;10.19;34.28
63339;BME280;47485;51.378;-1.342;2023-05-19T08:14:52;101325.09;;;11.46;33.58
63339;BME280;47485;51.378;-1.342;2023-05-19T08:17:18;101317.56;;;15.17;29.73
63339;BME280;47485;51.378;-1.342;2023-05-19T08:19:45;101319.25;;;10.89;32.28
63339;BME280;47485;51.378;-1.342;2023-05-19T08:22:11;101322.49;;;9.79;33.75
63339;BME280;47485;51.378;-1.342;2023-05-19T08:24:38;101321.53;;;14.61;29.70
63339;BME280;47485;51.378;-1.342;2023-05-19T08:27:05;101319.56;;;12.57;29.27
63339;BME280;47485;51.378;-1.342;2023-05-19T08:29:33;101319.23;;;11.20;29.03
63339;BME280;47485;51.378;-1.342;2023-05-19T08:32:00;101319.43;;;13.38;28.22
63339;BME280;47485;51.378;-1.342;2023-05-19T08:34:26;101312.18;;;15.39;26.62
63339;BME280;47485;51.378;-1.342;2023-05-19T08:36:53;101315.85;;;14.44;28.44
63339;BME280;47485;51.378;-1.342;2023-05-19T08:39:19;101314.20;;;14.16;28.02
63339;BME280;47485;51.378;-1.342;2023-05-19T08:41:46;101314.55;;;12.50;31.63
63339;BME280;47485;51.378;-1.342;2023-05-19T08:44:13;101306.83;;;15.26;29.50
63339;BME280;47485;51.378;-1.342;2023-05-19T08:46:40;101307.37;;;12.85;30.96
63339;BME280;47485;51.378;-1.342;2023-05-19T08:49:10;101305.13;;;12.59;31.15
63339;BME280;47485;51.378;-1.342;2023-05-19T08:51:47;101302.04;;;11.65;30.97
63339;BME280;47485;51.378;-1.342;2023-05-19T08:54:16;101298.27;;;13.95;30.01
63339;BME280;47485;51.378;-1.342;2023-05-19T08:56:44;101307.28;;;7.50;36.18
63339;BME280;47485;51.378;-1.342;2023-05-19T08:59:12;101292.72;;;12.24;30.16
63339;BME280;47485;51.378;-1.342;2023-05-19T09:01:41;101285.05;;;15.96;29.16
63339;BME280;47485;51.378;-1.342;2023-05-19T09:04:10;101278.44;;;15.72;28.52
63339;BME280;47485;51.378;-1.342;2023-05-19T09:06:37;101281.42;;;15.14;29.02
63339;BME280;47485;51.378;-1.342;2023-05-19T09:09:04;101277.31;;;11.76;32.09
63339;BME280;47485;51.378;-1.342;2023-05-19T09:11:32;101271.83;;;11.13;31.79
63339;BME280;47485;51.378;-1.342;2023-05-19T09:13:59;101264.25;;;14.30;29.07
63339;BME280;47485;51.378;-1.342;2023-05-19T09:16:25;101263.18;;;17.96;26.51
63339;BME280;47485;51.378;-1.342;2023-05-19T09:18:54;101259.79;;;16.69;28.27
63339;BME280;47485;51.378;-1.342;2023-05-19T09:21:26;101262.68;;;14.49;29.22
63339;BME280;47485;51.378;-1.342;2023-05-19T09:23:53;101263.05;;;13.24;30.03
63339;BME280;47485;51.378;-1.342;2023-05-19T09:26:20;101260.60;;;16.34;27.58
63339;BME280;47485;51.378;-1.342;2023-05-19T09:28:47;101263.21;;;16.34;28.03
63339;BME280;47485;51.378;-1.342;2023-05-19T09:31:13;101269.16;;;14.19;29.12
63339;BME280;47485;51.378;-1.342;2023-05-19T09:33:41;101268.40;;;14.85;29.03
63339;BME280;47485;51.378;-1.342;2023-05-19T09:36:09;101268.18;;;14.28;28.42
63339;BME280;47485;51.378;-1.342;2023-05-19T09:38:37;101269.31;;;14.20;28.89
63339;BME280;47485;51.378;-1.342;2023-05-19T09:41:06;101272.70;;;15.85;28.28
63339;BME280;47485;51.378;-1.342;2023-05-19T09:43:33;101278.19;;;15.31;29.67
63339;BME280;47485;51.378;-1.342;2023-05-19T09:46:03;101282.14;;;12.29;31.81
63339;BME280;47485;51.378;-1.342;2023-05-19T09:48:31;101283.36;;;13.77;32.63
63339;BME280;47485;51.378;-1.342;2023-05-19T09:50:59;101281.39;;;14.66;31.83
63339;BME280;47485;51.378;-1.342;2023-05-19T09:53:28;101277.57;;;15.24;31.21
63339;BME280;47485;51.378;-1.342;2023-05-19T09:55:56;101275.73;;;11.33;33.46
63339;BME280;47485;51.378;-1.342;2023-05-19T09:58:23;101274.68;;;12.86;31.38
63339;BME280;47485;51.378;-1.342;2023-05-19T10:00:50;101272.04;;;14.78;31.13
63339;BME280;47485;51.378;-1.342;2023-05-19T10:03:17;101271.27;;;11.50;33.31
63339;BME280;47485;51.378;-1.342;2023-05-19T10:05:45;101271.37;;;15.18;30.23
63339;BME280;47485;51.378;-1.342;2023-05-19T10:08:13;101273.58;;;13.98;31.10
63339;BME280;47485;51.378;-1.342;2023-05-19T10:10:45;101277.71;;;15.75;30.92
63339;BME280;47485;51.378;-1.342;2023-05-19T10:13:12;101278.07;;;13.66;32.74
63339;BME280;47485;51.378;-1.342;2023-05-19T10:15:39;101280.28;;;13.94;32.67
63339;BME280;47485;51.378;-1.342;2023-05-19T10:18:08;101275.22;;;15.73;29.88
63339;BME280;47485;51.378;-1.342;2023-05-19T10:20:35;101282.31;;;11.62;33.66
63339;BME280;47485;51.378;-1.342;2023-05-19T10:23:03;101281.51;;;16.24;30.86
63339;BME280;47485;51.378;-1.342;2023-05-19T10:25:32;101280.12;;;15.46;31.19
63339;BME280;47485;51.378;-1.342;2023-05-19T10:28:04;101280.37;;;14.24;30.97
63339;BME280;47485;51.378;-1.342;2023-05-19T10:30:37;101279.27;;;14.10;30.86
63339;BME280;47485;51.378;-1.342;2023-05-19T10:33:07;101282.50;;;12.75;31.65
63339;BME280;47485;51.378;-1.342;2023-05-19T10:35:56;101273.95;;;15.45;29.08
63339;BME280;47485;51.378;-1.342;2023-05-19T10:38:32;101273.86;;;15.55;29.64
63339;BME280;47485;51.378;-1.342;2023-05-19T10:41:04;101267.24;;;14.66;29.40
63339;BME280;47485;51.378;-1.342;2023-05-19T10:43:45;101264.61;;;14.98;28.13
63339;BME280;47485;51.378;-1.342;2023-05-19T10:46:14;101264.23;;;13.69;30.31
63339;BME280;47485;51.378;-1.342;2023-05-19T10:48:44;101257.99;;;16.13;26.42
63339;BME280;47485;51.378;-1.342;2023-05-19T10:51:11;101255.59;;;17.45;26.28
63339;BME280;47485;51.378;-1.342;2023-05-19T10:53:41;101252.60;;;16.25;26.54
63339;BME280;47485;51.378;-1.342;2023-05-19T10:56:08;101247.41;;;14.90;27.16
63339;BME280;47485;51.378;-1.342;2023-05-19T10:58:37;101244.50;;;12.89;28.96
63339;BME280;47485;51.378;-1.342;2023-05-19T11:01:07;101240.44;;;15.50;26.67
63339;BME280;47485;51.378;-1.342;2023-05-19T11:03:43;101236.00;;;15.77;26.28
63339;BME280;47485;51.378;-1.342;2023-05-19T11:06:27;101237.88;;;17.01;25.12
63339;BME280;47485;51.378;-1.342;2023-05-19T11:08:58;101236.60;;;15.91;24.97
63339;BME280;47485;51.378;-1.342;2023-05-19T11:11:26;101233.66;;;17.49;23.59
63339;BME280;47485;51.378;-1.342;2023-05-19T11:14:10;101233.41;;;17.09;23.97
63339;BME280;47485;51.378;-1.342;2023-05-19T11:16:38;101232.31;;;15.23;24.49
63339;BME280;47485;51.378;-1.342;2023-05-19T11:19:06;101227.95;;;20.07;23.31
63339;BME280;47485;51.378;-1.342;2023-05-19T11:21:42;101224.87;;;17.69;23.29
63339;BME280;47485;51.378;-1.342;2023-05-19T11:24:32;101222.16;;;17.17;22.65
63339;BME280;47485;51.378;-1.342;2023-05-19T11:26:59;101221.59;;;17.64;22.67
63339;BME280;47485;51.378;-1.342;2023-05-19T11:29:43;101223.25;;;18.86;22.52
63339;BME280;47485;51.378;-1.342;2023-05-19T11:32:10;101220.50;;;17.24;22.61
63339;BME280;47485;51.378;-1.342;2023-05-19T11:34:37;101223.26;;;16.86;23.16
63339;BME280;47485;51.378;-1.342;2023-05-19T11:37:05;101218.62;;;17.23;23.28
63339;BME280;47485;51.378;-1.342;2023-05-19T11:39:32;101214.11;;;17.33;23.19
63339;BME280;47485;51.378;-1.342;2023-05-19T11:42:00;101211.95;;;17.36;23.11
63339;BME280;47485;51.378;-1.342;2023-05-19T11:44:26;101214.29;;;15.73;23.70
63339;BME280;47485;51.378;-1.342;2023-05-19T11:46:53;101215.76;;;16.52;23.54
63339;BME280;47485;51.378;-1.342;2023-05-19T11:49:21;101209.81;;;17.38;22.72
63339;BME280;47485;51.378;-1.342;2023-05-19T11:51:48;101205.14;;;17.64;22.37
63339;BME280;47485;51.378;-1.342;2023-05-19T11:54:14;101203.73;;;17.53;22.53
63339;BME280;47485;51.378;-1.342;2023-05-19T11:56:41;101200.37;;;17.71;22.20
63339;BME280;47485;51.378;-1.342;2023-05-19T11:59:08;101199.84;;;17.68;22.42
63339;BME280;47485;51.378;-1.342;2023-05-19T12:01:36;101196.47;;;17.33;21.93
63339;BME280;47485;51.378;-1.342;2023-05-19T12:04:06;101199.17;;;15.33;23.20
63339;BME280;47485;51.378;-1.342;2023-05-19T12:06:34;101201.66;;;15.00;22.89
63339;BME280;47485;51.378;-1.342;2023-05-19T12:09:00;101198.57;;;13.49;25.06
63339;BME280;47485;51.378;-1.342;2023-05-19T12:11:28;101198.88;;;16.57;23.47
63339;BME280;47485;51.378;-1.342;2023-05-19T12:13:57;101200.33;;;14.74;24.31
63339;BME280;47485;51.378;-1.342;2023-05-19T12:16:32;101199.01;;;15.80;23.73
63339;BME280;47485;51.378;-1.342;2023-05-19T12:18:58;101194.42;;;17.05;21.77
63339;BME280;47485;51.378;-1.342;2023-05-19T12:21:25;101194.13;;;17.95;21.88
63339;BME280;47485;51.378;-1.342;2023-05-19T12:23:52;101197.91;;;16.26;22.52
63339;BME280;47485;51.378;-1.342;2023-05-19T12:26:20;101197.36;;;16.75;21.94
63339;BME280;47485;51.378;-1.342;2023-05-19T12:28:49;101196.27;;;17.64;22.03
63339;BME280;47485;51.378;-1.342;2023-05-19T12:31:16;101202.28;;;18.40;22.70
63339;BME280;47485;51.378;-1.342;2023-05-19T12:33:44;101205.51;;;16.93;23.06
63339;BME280;47485;51.378;-1.342;2023-05-19T12:36:11;101209.23;;;17.89;22.56
63339;BME280;47485;51.378;-1.342;2023-05-19T12:38:38;101212.59;;;18.77;22.80
63339;BME280;47485;51.378;-1.342;2023-05-19T12:41:06;101216.88;;;17.98;23.65
63339;BME280;47485;51.378;-1.342;2023-05-19T12:43:33;101217.17;;;16.47;24.02
63339;BME280;47485;51.378;-1.342;2023-05-19T12:46:09;101220.55;;;18.24;24.01